地図

経路データ

SID SEASON NUMBER BASIN SUBBASIN NAME ISO_TIME NATURE LAT LON WMO_WIND WMO_PRES WMO_AGENCY TRACK_TYPE DIST2LAND LANDFALL IFLAG USA_AGENCY USA_ATCF_ID USA_LAT USA_LON USA_RECORD USA_STATUS USA_WIND USA_PRES USA_SSHS USA_R34_NE USA_R34_SE USA_R34_SW USA_R34_NW USA_R50_NE USA_R50_SE USA_R50_SW USA_R50_NW USA_R64_NE USA_R64_SE USA_R64_SW USA_R64_NW USA_POCI USA_ROCI USA_RMW USA_EYE TOKYO_LAT TOKYO_LON TOKYO_GRADE TOKYO_WIND TOKYO_PRES TOKYO_R50_DIR TOKYO_R50_LONG TOKYO_R50_SHORT TOKYO_R30_DIR TOKYO_R30_LONG TOKYO_R30_SHORT TOKYO_LAND CMA_LAT CMA_LON CMA_CAT CMA_WIND CMA_PRES HKO_LAT HKO_LON HKO_CAT HKO_WIND HKO_PRES NEWDELHI_LAT NEWDELHI_LON NEWDELHI_GRADE NEWDELHI_WIND NEWDELHI_PRES NEWDELHI_CI NEWDELHI_DP NEWDELHI_POCI REUNION_LAT REUNION_LON REUNION_TYPE REUNION_WIND REUNION_PRES REUNION_TNUM REUNION_CI REUNION_RMW REUNION_R34_NE REUNION_R34_SE REUNION_R34_SW REUNION_R34_NW REUNION_R50_NE REUNION_R50_SE REUNION_R50_SW REUNION_R50_NW REUNION_R64_NE REUNION_R64_SE REUNION_R64_SW REUNION_R64_NW BOM_LAT BOM_LON BOM_TYPE BOM_WIND BOM_PRES BOM_TNUM BOM_CI BOM_RMW BOM_R34_NE BOM_R34_SE BOM_R34_SW BOM_R34_NW BOM_R50_NE BOM_R50_SE BOM_R50_SW BOM_R50_NW BOM_R64_NE BOM_R64_SE BOM_R64_SW BOM_R64_NW BOM_ROCI BOM_POCI BOM_EYE BOM_POS_METHOD BOM_PRES_METHOD NADI_LAT NADI_LON NADI_CAT NADI_WIND NADI_PRES WELLINGTON_LAT WELLINGTON_LON WELLINGTON_WIND WELLINGTON_PRES DS824_LAT DS824_LON DS824_STAGE DS824_WIND DS824_PRES TD9636_LAT TD9636_LON TD9636_STAGE TD9636_WIND TD9636_PRES TD9635_LAT TD9635_LON TD9635_WIND TD9635_PRES TD9635_ROCI NEUMANN_LAT NEUMANN_LON NEUMANN_CLASS NEUMANN_WIND NEUMANN_PRES MLC_LAT MLC_LON MLC_CLASS MLC_WIND MLC_PRES USA_GUST BOM_GUST BOM_GUST_PER REUNION_GUST REUNION_GUST_PER USA_SEAHGT USA_SEARAD_NE USA_SEARAD_SE USA_SEARAD_SW USA_SEARAD_NW STORM_SPEED STORM_DIR
1887137N16283 1887 11 NA CS NOT_NAMED 1887-05-17 00:00:00 TS 15.8000 -77.2333 35 hurdat_atl main 212 190 O____________O hurdat_atl AL021887 15.6000 -76.9000 TS 35 0 16.2000 -77.9000 TS 35 5 330
1887137N16283 1887 11 NA CS NOT_NAMED 1887-05-17 03:00:00 TS 16.0284 -77.3683 main 191 159 P____________P AL021887 15.7925 -77.0524 TS 35 0 16.5000 -77.9999 TS 35 5 331
1887137N16283 1887 11 NA CS NOT_NAMED 1887-05-17 06:00:00 TS 16.2667 -77.5000 35 hurdat_atl main 159 140 O____________O hurdat_atl AL021887 16.0000 -77.2000 TS 35 0 16.8000 -78.1000 TS 35 6 333
1887137N16283 1887 11 NA CS NOT_NAMED 1887-05-17 09:00:00 TS 16.5233 -77.6284 main 140 113 P____________P AL021887 16.2350 -77.3426 TS 37 0 17.1000 -78.2000 TS 37 6 334
1887137N16283 1887 11 NA CS NOT_NAMED 1887-05-17 12:00:00 TS 16.8000 -77.7667 40 hurdat_atl main 119 91 O____________O hurdat_atl AL021887 16.5000 -77.5000 TS 40 0 17.4000 -78.3000 TS 40 6 333
1887137N16283 1887 11 NA CS NOT_NAMED 1887-05-17 15:00:00 TS 17.0900 -77.9308 main 91 70 P____________P AL021887 16.7925 -77.6925 TS 40 0 17.6850 -78.4075 TS 40 7 332
1887137N16283 1887 11 NA CS NOT_NAMED 1887-05-17 18:00:00 TS 17.4000 -78.1000 40 hurdat_atl main 70 54 O____________O hurdat_atl AL021887 17.1000 -77.9000 TS 40 0 18.0000 -78.5000 TS 40 7 334
1887137N16283 1887 11 NA CS NOT_NAMED 1887-05-17 21:00:00 TS 17.7258 -78.2551 main 55 22 P____________P AL021887 17.4000 -78.1075 TS 42 0 18.3775 -78.5501 TS 42 7 337
1887137N16283 1887 11 NA CS NOT_NAMED 1887-05-18 00:00:00 TS 18.0667 -78.4000 45 hurdat_atl main 11 0 O____________O hurdat_atl AL021887 17.7000 -78.3000 TS 45 0 18.8000 -78.6000 TS 45 7 338
1887137N16283 1887 11 NA CS NOT_NAMED 1887-05-18 03:00:00 TS 18.4167 -78.5483 main 21 21 P____________P AL021887 18.0000 -78.4725 TS 45 0 19.2500 -78.6999 TS 45 7 340
1887137N16283 1887 11 NA CS NOT_NAMED 1887-05-18 06:00:00 TS 18.7667 -78.6667 45 hurdat_atl main 61 61 O____________O hurdat_atl AL021887 18.3000 -78.6000 TS 45 0 19.7000 -78.8000 TS 45 7 345
1887137N16283 1887 11 NA CS NOT_NAMED 1887-05-18 09:00:00 TS 19.1050 -78.7342 main 88 88 P____________P AL021887 18.6000 -78.6726 TS 47 0 20.1150 -78.8576 TS 47 7 352
1887137N16283 1887 11 NA CS NOT_NAMED 1887-05-18 12:00:00 TS 19.4333 -78.7667 50 hurdat_atl main 123 115 O____________O hurdat_atl AL021887 18.9000 -78.7000 TS 50 0 20.5000 -78.9000 TS 50 6 353
1887137N16283 1887 11 NA CS NOT_NAMED 1887-05-18 15:00:00 TS 19.7425 -78.8057 main 115 113 P____________P AL021887 19.1850 -78.7299 TS 50 0 20.8575 -78.9575 TS 50 6 357
1887137N16283 1887 11 NA CS NOT_NAMED 1887-05-18 18:00:00 TS 20.0667 -78.8000 50 hurdat_atl main 103 69 O____________O hurdat_atl AL021887 19.5000 -78.7000 TS 50 0 21.2000 -79.0000 TS 50 7 7
1887137N16283 1887 11 NA CS NOT_NAMED 1887-05-18 21:00:00 TS 20.4300 -78.7225 main 69 24 P____________P AL021887 19.8700 -78.5800 TS 50 0 21.5500 -79.0076 TS 50 8 13
1887137N16283 1887 11 NA CS NOT_NAMED 1887-05-19 00:00:00 TS 20.8333 -78.6000 50 hurdat_atl main 24 0 O____________O hurdat_atl AL021887 20.3000 -78.4000 TS 50 0 21.9000 -79.0000 TS 50 9 14
1887137N16283 1887 11 NA NA NOT_NAMED 1887-05-19 03:00:00 TS 21.2908 -78.4841 main 0 0 P____________P AL021887 20.8075 -78.2150 TS 45 0 22.2575 -79.0223 TS 45 9 15
1887137N16283 1887 11 NA NA NOT_NAMED 1887-05-19 06:00:00 TS 21.7333 -78.3333 40 hurdat_atl main 0 0 O____________O hurdat_atl AL021887 21.3000 -78.0000 TS 40 0 22.6000 -79.0000 TS 40 9 22
1887137N16283 1887 11 NA NA NOT_NAMED 1887-05-19 09:00:00 TS 22.0991 -78.1391 main 11 11 P____________P AL021887 21.6800 -77.7574 TS 37 0 22.9374 -78.9026 TS 37 8 31
1887137N16283 1887 11 NA NA NOT_NAMED 1887-05-19 12:00:00 TS 22.4000 -77.9000 35 hurdat_atl main 45 45 O____________O hurdat_atl AL021887 22.0000 -77.5000 TS 35 0 23.2000 -78.7000 TS 35 7 40
1887137N16283 1887 11 NA NA NOT_NAMED 1887-05-19 15:00:00 TS 22.6508 -77.6340 main 88 88 P____________P AL021887 22.3075 -77.2499 TS 35 0 23.3374 -78.4024 TS 35 7 48
1887137N16283 1887 11 NA NA NOT_NAMED 1887-05-19 18:00:00 TS 22.8667 -77.3333 35 hurdat_atl main 123 123 O____________O hurdat_atl AL021887 22.6000 -77.0000 TS 35 0 23.4000 -78.0000 TS 35 7 52
1887137N16283 1887 11 NA NA NOT_NAMED 1887-05-19 21:00:00 TS 23.0932 -77.0224 main 156 156 P____________P AL021887 22.9149 -76.7649 TS 37 0 23.4499 -77.5373 TS 37 8 55
1887137N16283 1887 11 NA NA NOT_NAMED 1887-05-20 00:00:00 TS 23.3000 -76.6667 40 hurdat_atl main 165 165 O____________O hurdat_atl AL021887 23.2000 -76.5000 TS 40 0 23.5000 -77.0000 TS 40 8 61
1887137N16283 1887 11 NA NA NOT_NAMED 1887-05-20 03:00:00 TS 23.4766 -76.2607 main 180 180 P____________P AL021887 23.4148 -76.1873 TS 42 0 23.6000 -76.4076 TS 42 9 67
1887137N16283 1887 11 NA NA NOT_NAMED 1887-05-20 06:00:00 TS 23.6333 -75.8000 45 hurdat_atl main 217 217 O____________O hurdat_atl AL021887 23.6000 -75.8000 TS 45 0 23.7000 -75.8000 TS 45 9 72
1887137N16283 1887 11 NA NA NOT_NAMED 1887-05-20 09:00:00 TS 23.7633 -75.2930 main 255 255 P____________P AL021887 23.7925 -75.3224 TS 45 0 23.7048 -75.2342 TS 45 10 72
1887137N16283 1887 11 NA NA NOT_NAMED 1887-05-20 12:00:00 TS 23.9333 -74.7667 45 hurdat_atl main 301 301 O____________O hurdat_atl AL021887 24.0000 -74.8000 TS 45 0 23.8000 -74.7000 TS 45 10 65
1887137N16283 1887 11 NA NA NOT_NAMED 1887-05-20 15:00:00 TS 24.1982 -74.2640 main 345 345 P____________P AL021887 24.2273 -74.2997 TS 47 0 24.1398 -74.1927 TS 47 11 57
1887137N16283 1887 11 NA NA NOT_NAMED 1887-05-20 18:00:00 TS 24.5333 -73.7667 50 hurdat_atl main 373 373 O____________O hurdat_atl AL021887 24.5000 -73.8000 TS 50 0 24.6000 -73.7000 TS 50 11 52
1887137N16283 1887 11 NA NA NOT_NAMED 1887-05-20 21:00:00 TS 24.8965 -73.2664 main 413 413 P____________P AL021887 24.8198 -73.2997 TS 50 0 25.0498 -73.1998 TS 50 12 50
1887137N16283 1887 11 NA NA NOT_NAMED 1887-05-21 00:00:00 TS 25.3000 -72.7667 50 hurdat_atl main 458 458 O____________O hurdat_atl AL021887 25.2000 -72.8000 TS 50 0 25.5000 -72.7000 TS 50 12 48
1887137N16283 1887 11 NA NA NOT_NAMED 1887-05-21 03:00:00 TS 25.7182 -72.2663 main 507 507 P____________P AL021887 25.6273 -72.2997 TS 50 0 25.8998 -72.1995 TS 50 13 46
1887137N16283 1887 11 NA NA NOT_NAMED 1887-05-21 06:00:00 TS 26.1667 -71.7667 50 hurdat_atl main 571 571 O____________O hurdat_atl AL021887 26.1000 -71.8000 TS 50 0 26.3000 -71.7000 TS 50 13 45
1887137N16283 1887 11 NA NA NOT_NAMED 1887-05-21 09:00:00 TS 26.6352 -71.2268 main 630 630 P____________P AL021887 26.5851 -71.2626 TS 47 0 26.7352 -71.1552 TS 47 13 43
1887137N16283 1887 11 NA NA NOT_NAMED 1887-05-21 12:00:00 TS 27.1333 -70.7667 45 hurdat_atl main 696 696 O____________O hurdat_atl AL021887 27.1000 -70.8000 TS 45 0 27.2000 -70.7000 TS 45 12 33
1887137N16283 1887 11 NA NA NOT_NAMED 1887-05-21 15:00:00 TS 27.6590 -70.4800 main 769 769 P____________P AL021887 27.6424 -70.5000 TS 40 0 27.6923 -70.4398 TS 40 11 21
1887137N16283 1887 11 NA NA NOT_NAMED 1887-05-21 18:00:00 TS 28.2000 -70.3000 35 hurdat_atl main 828 O____________O hurdat_atl AL021887 28.2000 -70.3000 TS 35 0 28.2000 -70.3000 TS 35 11 16

IBTrACS Databaseについて

本データベースは、米国NOAAが公開する1842年以降の世界の熱帯低気圧のベストトラックデータアーカイブInternational Best Track Archive for Climate Stewardship (IBTrACS)を、ウェブで閲覧しやすい形式に変換したものです。

最終更新日:2021-12-01